Time;durP1;ratioP1;P1;durP2;ratioP2;P2;SDS_P1;SDS_P2;PMS_P1;PMS_P2;Temp;Humidity;BMP_temperature;BMP_pressure;BME280_temperature;BME280_humidity;BME280_pressure;Samples;Min_cycle;Max_cycle;Signal;HPM_P1;HPM_P2
2023/01/20 00:02:01;;;;;;;32.60;19.77;;;2.90;78.90;;;;;;5095511;28;20385;-74
2023/01/20 00:04:26;;;;;;;36.57;19.33;;;2.90;80.20;;;;;;5095946;28;20390;-75
2023/01/20 00:06:52;;;;;;;33.80;19.63;;;2.90;80.10;;;;;;5095680;28;20382;-75
2023/01/20 00:09:18;;;;;;;32.53;19.23;;;2.80;80.90;;;;;;5096102;28;20431;-73
2023/01/20 00:11:44;;;;;;;34.63;18.93;;;2.70;80.80;;;;;;5095683;28;20396;-75
2023/01/20 00:14:10;;;;;;;38.25;19.77;;;2.70;81.60;;;;;;5095689;28;20382;-73
2023/01/20 00:16:35;;;;;;;36.38;19.60;;;2.80;81.20;;;;;;5095230;28;20385;-74
2023/01/20 00:19:01;;;;;;;33.78;19.50;;;2.80;79.60;;;;;;5076995;28;20394;-74
2023/01/20 00:21:27;;;;;;;32.63;18.88;;;2.90;78.60;;;;;;5094882;28;20378;-75
2023/01/20 00:23:53;;;;;;;34.97;18.33;;;2.90;77.40;;;;;;5095093;28;20378;-74
2023/01/20 00:26:21;;;;;;;29.38;18.33;;;2.90;77.60;;;;;;5094633;28;20423;-76
2023/01/20 00:28:47;;;;;;;36.25;19.58;;;2.90;77.10;;;;;;5095564;28;20386;-73
2023/01/20 00:31:13;;;;;;;33.15;19.65;;;3.00;76.40;;;;;;5094919;28;20477;-74
2023/01/20 00:33:39;;;;;;;31.23;18.27;;;3.00;75.90;;;;;;5096122;28;20476;-74
2023/01/20 00:36:05;;;;;;;31.98;18.15;;;3.00;77.00;;;;;;5096472;28;20425;-75
2023/01/20 00:38:30;;;;;;;33.55;18.02;;;3.00;75.80;;;;;;5076996;28;20402;-73
2023/01/20 00:40:56;;;;;;;30.70;17.80;;;3.10;74.30;;;;;;5094559;28;20450;-74
2023/01/20 00:43:21;;;;;;;33.00;17.25;;;3.00;75.10;;;;;;5075983;28;20378;-73
2023/01/20 00:45:47;;;;;;;33.63;18.57;;;3.10;74.70;;;;;;5094403;28;20381;-74
2023/01/20 00:48:13;;;;;;;32.67;18.97;;;3.00;74.70;;;;;;5094160;28;20386;-74
2023/01/20 00:50:38;;;;;;;32.87;18.30;;;3.10;74.80;;;;;;5094503;28;20727;-74
2023/01/20 00:53:04;;;;;;;31.80;18.50;;;3.10;74.60;;;;;;5094127;28;20405;-75
2023/01/20 00:55:29;;;;;;;33.55;19.38;;;3.00;75.10;;;;;;5094019;28;20806;-74
2023/01/20 00:57:55;;;;;;;37.20;20.42;;;3.10;74.20;;;;;;5093351;28;20430;-74
2023/01/20 01:00:20;;;;;;;31.40;18.92;;;3.10;74.10;;;;;;5093703;28;20382;-74
2023/01/20 01:02:46;;;;;;;35.37;20.87;;;3.10;73.60;;;;;;5075620;28;20463;-75
2023/01/20 01:05:11;;;;;;;35.13;19.93;;;3.10;73.30;;;;;;5093490;28;20810;-73
2023/01/20 01:07:37;;;;;;;35.43;20.27;;;3.10;73.20;;;;;;5093841;28;20403;-74
2023/01/20 01:10:03;;;;;;;43.03;21.70;;;3.00;73.60;;;;;;5093159;28;20377;-75
2023/01/20 01:12:29;;;;;;;39.40;21.63;;;3.00;73.60;;;;;;5092919;28;20890;-73
2023/01/20 01:14:55;;;;;;;38.10;21.10;;;2.90;74.40;;;;;;5093251;28;20419;-74
2023/01/20 01:17:22;;;;;;;41.88;23.05;;;3.00;73.40;;;;;;5093284;28;20368;-74
2023/01/20 01:19:48;;;;;;;43.72;22.85;;;3.00;73.00;;;;;;5093070;28;20394;-73
2023/01/20 01:22:14;;;;;;;41.57;23.10;;;2.90;73.60;;;;;;5092926;28;20826;-73
2023/01/20 01:24:43;;;;;;;41.05;22.90;;;2.90;73.60;;;;;;5092783;28;20381;-75
2023/01/20 01:27:08;;;;;;;47.85;23.80;;;2.90;74.60;;;;;;5092735;28;20481;-74
2023/01/20 01:29:34;;;;;;;40.23;23.90;;;2.80;73.70;;;;;;5075251;28;20823;-74
2023/01/20 01:31:59;;;;;;;45.57;23.10;;;2.80;74.50;;;;;;5093514;28;20408;-76
2023/01/20 01:34:25;;;;;;;41.07;23.93;;;2.80;74.90;;;;;;5092669;28;20417;-75
2023/01/20 01:36:51;;;;;;;45.38;23.73;;;2.80;75.40;;;;;;5092730;28;20397;-74
2023/01/20 01:39:16;;;;;;;46.53;24.33;;;2.70;76.40;;;;;;5074725;28;20524;-74
2023/01/20 01:41:42;;;;;;;43.13;23.23;;;2.80;76.40;;;;;;5092665;28;20388;-75
2023/01/20 01:44:11;;;;;;;47.10;25.40;;;2.80;76.60;;;;;;5074883;28;20793;-75
2023/01/20 01:46:37;;;;;;;45.88;24.90;;;2.80;76.40;;;;;;5093419;28;20374;-74
2023/01/20 01:49:09;;;;;;;43.05;24.38;;;2.90;77.00;;;;;;5092879;28;20431;-74
2023/01/20 01:51:45;;;;;;;47.85;26.17;;;2.90;75.60;;;;;;5093283;28;20389;-75
2023/01/20 01:54:15;;;;;;;46.40;25.35;;;2.90;74.90;;;;;;5092598;28;20409;-76
2023/01/20 01:56:43;;;;;;;48.30;25.48;;;2.90;75.80;;;;;;5093188;28;20419;-74
2023/01/20 01:59:11;;;;;;;45.30;25.08;;;3.00;76.00;;;;;;5092792;28;20402;-74
2023/01/20 02:01:39;;;;;;;49.45;25.63;;;2.90;75.20;;;;;;5092724;28;20940;-75
2023/01/20 02:04:16;;;;;;;46.95;25.90;;;3.00;75.90;;;;;;5092305;28;20473;-74
2023/01/20 02:06:45;;;;;;;47.58;26.52;;;3.00;74.90;;;;;;5091945;28;20393;-75
2023/01/20 02:09:11;;;;;;;45.58;26.27;;;3.00;74.60;;;;;;5092247;28;20907;-75
2023/01/20 02:11:47;;;;;;;48.08;25.50;;;3.00;73.20;;;;;;5084193;28;20404;-75
2023/01/20 02:14:16;;;;;;;46.78;25.73;;;3.00;72.00;;;;;;5105563;28;20390;-74
2023/01/20 02:17:12;;;;;;;51.33;26.33;;;3.00;72.30;;;;;;5096832;28;20406;-75
2023/01/20 02:20:00;;;;;;;51.25;27.42;;;3.00;72.30;;;;;;5083257;28;20481;-75
2023/01/20 02:22:50;;;;;;;50.03;25.88;;;2.90;73.40;;;;;;5092773;28;20384;-76
2023/01/20 02:25:37;;;;;;;49.72;26.88;;;2.90;73.90;;;;;;5074043;28;20882;-75
2023/01/20 02:28:27;;;;;;;50.00;27.90;;;2.90;74.00;;;;;;5092859;28;20394;-74
2023/01/20 02:31:16;;;;;;;56.47;27.23;;;2.90;74.40;;;;;;5094834;28;20870;-77
2023/01/20 02:34:05;;;;;;;47.83;26.27;;;2.80;74.40;;;;;;5093423;28;20406;-75
2023/01/20 02:36:42;;;;;;;52.47;27.08;;;2.80;74.80;;;;;;5090921;28;20405;-73
2023/01/20 02:39:38;;;;;;;48.47;27.13;;;2.80;75.60;;;;;;5091886;28;20893;-82
2023/01/20 02:42:13;;;;;;;50.83;27.27;;;2.80;77.40;;;;;;5057567;28;20480;-76
2023/01/20 02:44:55;;;;;;;48.75;26.40;;;2.80;76.40;;;;;;5092201;28;20380;-74
2023/01/20 02:47:29;;;;;;;47.88;26.27;;;2.80;76.40;;;;;;5091828;28;20392;-75
2023/01/20 02:50:21;;;;;;;48.03;26.55;;;2.90;75.30;;;;;;5092820;28;20382;-74
2023/01/20 02:52:51;;;;;;;44.35;25.45;;;2.90;75.90;;;;;;5092410;28;20401;-76
2023/01/20 02:55:32;;;;;;;44.20;24.30;;;2.90;75.00;;;;;;5091205;28;20454;-74
2023/01/20 02:58:04;;;;;;;44.95;23.85;;;3.00;74.20;;;;;;5091257;28;20401;-75
2023/01/20 03:00:38;;;;;;;47.85;23.40;;;2.90;74.90;;;;;;5090850;28;20857;-75
2023/01/20 03:03:09;;;;;;;39.15;21.85;;;2.90;72.90;;;;;;5091001;28;20376;-75
2023/01/20 03:05:39;;;;;;;43.53;22.65;;;2.90;72.30;;;;;;5073026;28;20378;-74
2023/01/20 03:08:08;;;;;;;46.47;24.40;;;2.90;73.80;;;;;;5091438;28;20948;-75
2023/01/20 03:10:36;;;;;;;42.42;24.10;;;2.90;75.10;;;;;;5090819;28;20389;-74
2023/01/20 03:13:28;;;;;;;44.95;24.80;;;2.80;75.50;;;;;;5091202;28;20405;-75
2023/01/20 03:16:03;;;;;;;40.55;23.98;;;2.80;77.20;;;;;;5090905;28;20393;-75
2023/01/20 03:18:30;;;;;;;44.60;23.50;;;2.80;77.60;;;;;;5090696;28;20432;-75
2023/01/20 03:20:57;;;;;;;41.65;23.30;;;2.90;74.10;;;;;;5093216;28;20386;-74
2023/01/20 03:23:25;;;;;;;46.50;23.45;;;3.00;72.60;;;;;;5096696;28;20731;-76
2023/01/20 03:25:50;;;;;;;40.58;22.23;;;3.00;72.60;;;;;;5107773;28;20393;-76
2023/01/20 03:28:16;;;;;;;40.20;22.45;;;2.90;73.60;;;;;;5100197;28;20382;-74
2023/01/20 03:30:42;;;;;;;47.40;23.10;;;2.90;73.60;;;;;;5095706;28;20525;-75
2023/01/20 03:33:08;;;;;;;47.37;23.70;;;2.90;76.80;;;;;;5095565;28;20462;-76
2023/01/20 03:35:34;;;;;;;43.88;24.48;;;3.00;72.80;;;;;;5094974;28;20431;-75
2023/01/20 03:38:00;;;;;;;40.78;22.25;;;3.00;72.60;;;;;;5095160;28;20401;-75
2023/01/20 03:40:30;;;;;;;41.73;23.33;;;2.90;73.80;;;;;;5095132;28;20374;-74
2023/01/20 03:43:22;;;;;;;46.65;24.80;;;3.00;74.20;;;;;;5094860;28;20378;-74
2023/01/20 03:45:56;;;;;;;50.58;25.77;;;3.00;73.20;;;;;;5095062;28;20378;-74
2023/01/20 03:48:38;;;;;;;51.35;27.25;;;3.10;71.50;;;;;;5095313;28;20413;-75
2023/01/20 03:51:32;;;;;;;52.45;27.65;;;3.00;73.20;;;;;;5077193;28;20386;-76
2023/01/20 03:54:10;;;;;;;55.60;29.42;;;3.10;72.60;;;;;;5095344;28;20389;-75
2023/01/20 03:56:52;;;;;;;56.20;29.45;;;3.10;72.40;;;;;;5094736;28;20481;-76
2023/01/20 03:59:21;;;;;;;50.85;26.60;;;3.10;71.90;;;;;;5095325;28;20446;-76
2023/01/20 04:01:48;;;;;;;55.75;28.90;;;3.10;71.60;;;;;;5094843;28;20374;-76
2023/01/20 04:04:19;;;;;;;50.63;27.10;;;3.10;71.70;;;;;;5094862;28;20381;-76
2023/01/20 04:06:48;;;;;;;52.90;27.63;;;3.00;72.70;;;;;;5094937;28;20408;-76
2023/01/20 04:09:19;;;;;;;54.58;28.35;;;3.00;74.00;;;;;;5094380;28;20421;-77
2023/01/20 04:11:45;;;;;;;53.13;28.57;;;3.00;74.10;;;;;;5094429;28;20374;-76
2023/01/20 04:14:10;;;;;;;53.45;27.20;;;3.00;74.80;;;;;;5095000;28;20389;-76
2023/01/20 04:16:36;;;;;;;56.72;28.13;;;2.90;75.10;;;;;;5094666;28;20684;-76
2023/01/20 04:19:02;;;;;;;51.95;27.58;;;2.90;75.60;;;;;;5094653;28;20735;-76
2023/01/20 04:21:42;;;;;;;55.67;28.85;;;2.90;76.60;;;;;;5094216;28;20393;-75
2023/01/20 04:24:22;;;;;;;51.67;26.55;;;2.90;76.20;;;;;;5094452;28;20862;-76
2023/01/20 04:26:47;;;;;;;52.73;26.70;;;2.90;77.10;;;;;;5093784;28;20386;-75
2023/01/20 04:29:13;;;;;;;48.70;26.83;;;2.90;76.80;;;;;;5094427;28;20446;-75
2023/01/20 04:31:38;;;;;;;50.58;25.75;;;3.00;75.40;;;;;;5093078;28;20461;-74
2023/01/20 04:34:04;;;;;;;49.75;26.85;;;2.90;75.60;;;;;;5093952;28;20382;-75
2023/01/20 04:36:30;;;;;;;49.63;25.73;;;3.00;75.40;;;;;;5094216;28;20955;-75
2023/01/20 04:38:55;;;;;;;47.77;25.07;;;2.90;75.60;;;;;;5095745;28;20405;-74
2023/01/20 04:41:21;;;;;;;50.40;25.85;;;3.00;75.30;;;;;;5098320;28;20389;-75
2023/01/20 04:43:47;;;;;;;49.80;25.95;;;2.90;76.50;;;;;;5100483;28;20385;-74
2023/01/20 04:46:14;;;;;;;51.92;27.65;;;3.00;74.40;;;;;;5113811;28;20397;-75
2023/01/20 04:48:40;;;;;;;49.30;25.00;;;2.90;75.60;;;;;;5108465;28;20382;-76
2023/01/20 04:51:06;;;;;;;54.40;27.30;;;2.80;78.10;;;;;;5094672;28;20406;-75
2023/01/20 04:53:33;;;;;;;47.13;25.40;;;2.90;79.10;;;;;;5094014;28;20386;-75
2023/01/20 04:55:59;;;;;;;47.70;25.67;;;3.00;76.30;;;;;;5094033;28;20890;-75
2023/01/20 04:58:25;;;;;;;49.95;26.33;;;3.00;75.10;;;;;;5094048;28;20405;-75
2023/01/20 05:00:50;;;;;;;54.90;27.03;;;3.00;75.70;;;;;;5094333;28;20382;-77
2023/01/20 05:03:16;;;;;;;52.43;28.63;;;3.10;73.40;;;;;;5093916;28;20369;-76
2023/01/20 05:05:41;;;;;;;54.47;28.50;;;3.10;74.00;;;;;;5093807;28;20536;-76
2023/01/20 05:08:07;;;;;;;57.22;29.75;;;3.20;72.00;;;;;;5075388;28;20382;-75
2023/01/20 05:10:33;;;;;;;54.85;27.80;;;3.20;72.80;;;;;;5093322;28;20437;-74
2023/01/20 05:12:59;;;;;;;49.13;28.20;;;3.10;73.60;;;;;;5093100;28;20397;-74
2023/01/20 05:15:26;;;;;;;53.55;27.45;;;3.20;72.60;;;;;;5094185;28;20382;-75
2023/01/20 05:17:51;;;;;;;48.45;26.42;;;3.20;71.40;;;;;;5077168;28;20425;-76
2023/01/20 05:20:19;;;;;;;43.90;23.40;;;3.20;70.10;;;;;;5095027;28;20377;-75
2023/01/20 05:22:45;;;;;;;43.35;23.80;;;3.20;68.50;;;;;;5094713;28;20370;-74
2023/01/20 05:25:11;;;;;;;40.57;22.60;;;3.00;69.90;;;;;;5094970;28;20477;-73
2023/01/20 05:27:37;;;;;;;40.33;22.88;;;3.00;69.00;;;;;;5094789;28;20894;-76
2023/01/20 05:30:04;;;;;;;37.90;21.67;;;3.00;69.70;;;;;;5095612;28;20416;-74
2023/01/20 05:32:30;;;;;;;37.63;22.13;;;2.90;70.70;;;;;;5094634;28;20393;-76
2023/01/20 05:34:56;;;;;;;41.67;22.23;;;2.80;70.90;;;;;;5095401;28;20835;-77
2023/01/20 05:37:21;;;;;;;41.05;23.55;;;2.80;72.40;;;;;;5093424;28;20457;-73
2023/01/20 05:39:47;;;;;;;40.55;22.90;;;2.90;72.10;;;;;;5092913;28;20410;-75
2023/01/20 05:42:12;;;;;;;37.20;22.98;;;2.90;73.20;;;;;;5093253;28;20477;-76
2023/01/20 05:44:38;;;;;;;38.50;22.10;;;2.80;71.90;;;;;;5076117;28;20378;-77
2023/01/20 05:47:03;;;;;;;42.57;24.60;;;2.80;73.80;;;;;;5094956;28;20390;-75
2023/01/20 05:49:29;;;;;;;40.60;21.73;;;2.70;74.40;;;;;;5093249;28;20431;-76
2023/01/20 05:51:54;;;;;;;38.50;21.37;;;2.80;73.10;;;;;;5092818;28;20414;-75
2023/01/20 05:54:20;;;;;;;43.93;23.67;;;2.80;74.60;;;;;;5092341;28;20382;-76
2023/01/20 05:56:47;;;;;;;41.57;24.27;;;2.80;75.10;;;;;;5074817;28;20389;-74
2023/01/20 05:59:13;;;;;;;40.70;23.20;;;2.70;75.40;;;;;;5092896;28;20398;-74
2023/01/20 06:01:39;;;;;;;40.53;23.10;;;2.80;75.70;;;;;;5092161;28;20412;-76
2023/01/20 06:04:05;;;;;;;35.55;21.13;;;2.80;75.60;;;;;;5092543;28;20378;-75
2023/01/20 06:06:31;;;;;;;38.83;21.70;;;2.90;73.90;;;;;;5094090;28;20378;-76
2023/01/20 06:08:56;;;;;;;35.00;22.20;;;3.00;72.70;;;;;;5074360;28;20748;-76
2023/01/20 06:11:22;;;;;;;38.03;23.45;;;3.00;71.10;;;;;;5092608;28;20386;-75
2023/01/20 06:13:48;;;;;;;37.53;21.20;;;3.00;72.00;;;;;;5074055;28;20466;-74
2023/01/20 06:16:15;;;;;;;32.90;19.38;;;3.10;70.60;;;;;;5091954;28;20378;-75
2023/01/20 06:18:41;;;;;;;34.67;20.45;;;3.10;67.80;;;;;;5091678;28;20689;-74
2023/01/20 06:21:06;;;;;;;32.47;20.13;;;3.20;67.60;;;;;;5092102;28;20400;-75
2023/01/20 06:23:32;;;;;;;36.00;21.27;;;3.20;68.00;;;;;;5092212;28;20409;-74
2023/01/20 06:26:06;;;;;;;35.50;20.60;;;3.10;69.20;;;;;;5091869;28;20407;-74
2023/01/20 06:28:32;;;;;;;35.00;20.07;;;3.10;71.20;;;;;;5091924;28;20381;-75
2023/01/20 06:31:02;;;;;;;39.58;20.70;;;3.10;70.10;;;;;;5091743;28;20390;-76
2023/01/20 06:33:28;;;;;;;33.10;19.35;;;3.10;70.20;;;;;;5092070;28;20374;-74
2023/01/20 06:35:55;;;;;;;35.10;20.48;;;3.10;69.00;;;;;;5091791;28;20393;-74
2023/01/20 06:38:26;;;;;;;34.15;19.77;;;3.10;69.00;;;;;;5074101;28;20489;-74
2023/01/20 06:40:57;;;;;;;32.80;18.58;;;3.10;68.90;;;;;;5073250;28;20510;-75
2023/01/20 06:43:23;;;;;;;30.83;19.13;;;3.10;68.10;;;;;;5091925;28;20871;-75
2023/01/20 06:45:49;;;;;;;32.28;19.35;;;3.20;67.20;;;;;;5092066;28;20787;-74
2023/01/20 06:48:15;;;;;;;31.08;19.15;;;3.30;65.40;;;;;;5091679;28;20415;-74
2023/01/20 06:50:40;;;;;;;32.23;19.20;;;3.20;66.50;;;;;;5091338;28;20909;-74
2023/01/20 06:53:06;;;;;;;33.00;19.83;;;3.10;68.20;;;;;;5091368;28;20388;-74
2023/01/20 06:55:31;;;;;;;32.10;19.93;;;3.10;67.70;;;;;;5072903;28;20378;-74
2023/01/20 06:57:57;;;;;;;34.53;19.30;;;3.10;68.10;;;;;;5073494;28;20395;-75
2023/01/20 07:00:23;;;;;;;35.53;20.83;;;3.10;68.20;;;;;;5091977;28;20418;-75
2023/01/20 07:02:48;;;;;;;35.97;21.17;;;3.10;68.30;;;;;;5091062;28;20883;-75
2023/01/20 07:05:14;;;;;;;37.05;20.70;;;3.20;68.00;;;;;;5091777;28;20378;-76
2023/01/20 07:07:44;;;;;;;40.22;21.38;;;3.20;67.90;;;;;;5091516;28;20795;-76
2023/01/20 07:10:10;;;;;;;36.72;20.90;;;3.20;68.20;;;;;;5091482;28;20398;-75
2023/01/20 07:12:35;;;;;;;35.28;21.40;;;3.20;68.60;;;;;;5091764;28;20494;-75
2023/01/20 07:15:01;;;;;;;37.22;20.63;;;3.20;68.60;;;;;;5073033;28;20503;-75
2023/01/20 07:17:26;;;;;;;35.25;21.30;;;3.30;68.20;;;;;;5074649;28;20390;-74
2023/01/20 07:19:52;;;;;;;37.00;21.48;;;3.30;67.70;;;;;;5109525;28;20409;-76
2023/01/20 07:22:17;;;;;;;40.03;21.90;;;3.30;66.60;;;;;;5095967;28;20378;-75
2023/01/20 07:24:43;;;;;;;38.03;21.85;;;3.30;67.30;;;;;;5092408;28;20828;-77
2023/01/20 07:27:09;;;;;;;35.80;22.10;;;3.30;65.80;;;;;;5092915;28;20389;-76
2023/01/20 07:29:34;;;;;;;36.97;22.50;;;3.40;65.90;;;;;;5091030;28;20839;-75
2023/01/20 07:32:15;;;;;;;34.80;21.70;;;3.40;65.40;;;;;;5046059;28;20414;-74
2023/01/20 07:34:41;;;;;;;42.97;23.90;;;3.30;66.30;;;;;;5092286;28;20385;-77
2023/01/20 07:37:06;;;;;;;40.80;22.87;;;3.30;66.50;;;;;;5091107;28;20751;-76
2023/01/20 07:39:32;;;;;;;39.40;24.03;;;3.40;65.80;;;;;;5090770;28;20894;-74
2023/01/20 07:41:58;;;;;;;39.37;23.57;;;3.40;65.10;;;;;;5090786;28;20374;-76
2023/01/20 07:44:23;;;;;;;40.40;22.40;;;3.40;66.70;;;;;;5091246;28;20743;-75
2023/01/20 07:46:50;;;;;;;38.33;22.35;;;3.30;66.90;;;;;;5092162;28;20374;-75
2023/01/20 07:49:15;;;;;;;39.25;23.83;;;3.30;67.20;;;;;;5091543;28;20386;-74
2023/01/20 07:51:42;;;;;;;38.30;22.42;;;3.30;66.10;;;;;;5090989;28;20416;-74
2023/01/20 07:54:10;;;;;;;37.08;22.15;;;3.40;65.90;;;;;;5091094;28;20386;-76
2023/01/20 07:56:36;;;;;;;40.00;22.63;;;3.30;65.60;;;;;;5091143;28;20385;-74
2023/01/20 07:59:01;;;;;;;43.10;22.10;;;3.40;64.20;;;;;;5091345;28;20406;-75
2023/01/20 08:01:31;;;;;;;38.00;22.08;;;3.40;64.20;;;;;;5091631;28;20416;-75
2023/01/20 08:04:01;;;;;;;35.00;21.90;;;3.30;64.50;;;;;;5091465;28;20385;-75
2023/01/20 08:06:27;;;;;;;38.78;23.65;;;3.30;64.70;;;;;;5091341;28;20393;-74
2023/01/20 08:08:53;;;;;;;39.67;22.90;;;3.30;65.60;;;;;;5095015;28;20374;-74
2023/01/20 08:11:20;;;;;;;39.53;23.52;;;3.30;65.30;;;;;;5095187;28;20897;-76
2023/01/20 08:13:46;;;;;;;37.88;22.08;;;3.40;64.40;;;;;;5095024;28;20378;-76
2023/01/20 08:16:13;;;;;;;38.13;22.93;;;3.50;63.90;;;;;;5076901;28;20486;-76
2023/01/20 08:18:39;;;;;;;46.03;23.73;;;3.50;63.30;;;;;;5095084;28;20887;-75
2023/01/20 08:21:07;;;;;;;41.05;23.80;;;3.50;63.50;;;;;;5094778;28;20460;-74
2023/01/20 08:23:34;;;;;;;40.50;22.73;;;3.50;63.30;;;;;;5076449;28;20417;-76
2023/01/20 08:26:01;;;;;;;47.15;24.95;;;3.50;62.00;;;;;;5094847;28;20382;-74
2023/01/20 08:28:29;;;;;;;42.55;24.73;;;3.50;62.00;;;;;;5095770;28;20863;-76
2023/01/20 08:31:01;;;;;;;46.65;26.30;;;3.50;61.50;;;;;;5098667;28;20381;-77
2023/01/20 08:33:27;;;;;;;46.72;24.80;;;3.50;61.90;;;;;;5097978;28;20370;-76
2023/01/20 08:35:54;;;;;;;44.17;25.00;;;3.60;61.80;;;;;;5094871;28;20499;-74
2023/01/20 08:38:20;;;;;;;45.80;25.75;;;3.50;62.40;;;;;;5094691;28;20488;-75
2023/01/20 08:40:45;;;;;;;45.93;26.47;;;3.50;62.90;;;;;;5095308;28;20413;-74
2023/01/20 08:43:11;;;;;;;47.90;25.60;;;3.60;61.40;;;;;;5094694;28;20372;-75
2023/01/20 08:45:36;;;;;;;42.83;25.43;;;3.60;60.90;;;;;;5094567;28;20378;-75
2023/01/20 08:48:02;;;;;;;42.57;24.63;;;3.60;61.50;;;;;;5094213;28;20855;-76
2023/01/20 08:50:28;;;;;;;42.08;23.70;;;3.70;60.50;;;;;;5094398;28;20385;-76
2023/01/20 08:52:53;;;;;;;39.15;24.65;;;3.80;59.30;;;;;;5094431;28;20378;-75
2023/01/20 08:55:19;;;;;;;41.78;24.95;;;3.80;58.50;;;;;;5094347;28;20801;-75
2023/01/20 08:57:44;;;;;;;39.90;23.40;;;3.90;57.70;;;;;;5093895;28;20747;-74
2023/01/20 09:00:11;;;;;;;40.08;23.30;;;3.90;57.30;;;;;;5094200;28;20715;-75
2023/01/20 09:02:37;;;;;;;40.40;23.40;;;3.90;56.20;;;;;;5093346;28;20436;-75
2023/01/20 09:05:04;;;;;;;37.40;22.50;;;3.80;57.00;;;;;;5093524;28;20390;-74
2023/01/20 09:07:29;;;;;;;35.22;21.98;;;3.80;56.20;;;;;;5092841;28;20909;-73
2023/01/20 09:09:55;;;;;;;40.47;22.60;;;3.80;56.00;;;;;;5093138;28;20386;-76
2023/01/20 09:12:20;;;;;;;39.70;23.50;;;3.70;56.20;;;;;;5093196;28;20402;-75
2023/01/20 09:14:46;;;;;;;34.73;20.90;;;3.70;57.20;;;;;;5093576;28;20381;-76
2023/01/20 09:17:13;;;;;;;36.83;20.20;;;3.70;56.90;;;;;;5092732;28;20386;-75
2023/01/20 09:19:39;;;;;;;35.65;21.15;;;3.70;56.50;;;;;;5092329;28;20398;-75
2023/01/20 09:22:04;;;;;;;39.60;21.23;;;3.80;56.80;;;;;;5095685;28;20389;-75
2023/01/20 09:24:30;;;;;;;37.97;21.90;;;3.90;55.90;;;;;;5092654;28;20426;-76
2023/01/20 09:26:56;;;;;;;38.67;22.67;;;4.00;55.60;;;;;;5092561;28;20390;-74
2023/01/20 09:29:21;;;;;;;37.70;21.07;;;4.00;55.70;;;;;;5093441;28;20390;-76
2023/01/20 09:31:52;;;;;;;39.67;22.42;;;4.10;55.50;;;;;;5092455;28;20389;-74
2023/01/20 09:34:23;;;;;;;39.15;22.23;;;4.10;55.40;;;;;;5074583;28;20415;-74
2023/01/20 09:36:50;;;;;;;38.80;21.13;;;4.20;55.10;;;;;;5093068;28;20881;-75
2023/01/20 09:45:23;;;;;;;37.10;21.08;;;4.40;57.30;;;;;;5097460;28;20370;-74
2023/01/20 09:47:49;;;;;;;31.75;19.67;;;4.40;56.00;;;;;;5097510;28;20381;-74
2023/01/20 09:53:55;;;;;;;33.45;20.00;;;4.50;52.80;;;;;;5096785;28;20391;-75
2023/01/20 09:56:24;;;;;;;37.10;19.42;;;4.50;53.70;;;;;;5097061;28;20379;-75
2023/01/20 09:59:11;;;;;;;35.40;21.80;;;4.40;53.30;;;;;;5101980;28;20826;-76
2023/01/20 10:01:51;;;;;;;31.73;20.02;;;4.30;54.00;;;;;;5102668;28;20857;-74
2023/01/20 10:04:37;;;;;;;34.50;21.07;;;4.30;55.00;;;;;;5081943;28;20389;-75
2023/01/20 10:07:18;;;;;;;33.85;20.40;;;4.20;55.70;;;;;;5097222;28;20471;-74
2023/01/20 10:09:59;;;;;;;34.80;19.10;;;4.10;54.40;;;;;;5096863;28;20412;-75
2023/01/20 10:12:33;;;;;;;37.40;21.20;;;4.10;55.40;;;;;;5096526;28;20393;-75
2023/01/20 10:15:20;;;;;;;34.88;21.05;;;4.20;56.30;;;;;;5097065;28;21163;-76
2023/01/20 10:17:57;;;;;;;31.48;18.58;;;4.30;55.90;;;;;;5098718;28;20382;-75
2023/01/20 10:20:35;;;;;;;30.95;18.77;;;4.50;52.90;;;;;;5099008;28;20382;-75
2023/01/20 10:23:16;;;;;;;31.98;18.67;;;4.50;51.60;;;;;;5096897;28;20462;-75
2023/01/20 10:25:48;;;;;;;32.60;20.10;;;4.70;50.20;;;;;;5094688;28;20831;-75
2023/01/20 10:28:23;;;;;;;30.52;18.50;;;5.00;48.60;;;;;;5093416;28;20485;-75
2023/01/20 10:30:49;;;;;;;30.57;18.20;;;5.10;47.30;;;;;;5091585;28;20456;-76
2023/01/20 10:33:24;;;;;;;30.02;17.70;;;5.20;46.20;;;;;;5092195;28;20378;-76
2023/01/20 10:35:53;;;;;;;29.75;18.25;;;5.30;46.90;;;;;;5075014;28;20417;-75
2023/01/20 10:38:25;;;;;;;28.85;18.50;;;5.30;45.70;;;;;;5091705;28;20922;-75
2023/01/20 10:40:59;;;;;;;29.95;16.95;;;5.30;46.80;;;;;;5091582;28;20392;-75
2023/01/20 10:43:24;;;;;;;26.17;15.43;;;5.30;46.60;;;;;;5091815;28;20999;-74
2023/01/20 10:46:19;;;;;;;33.13;17.30;;;5.30;45.40;;;;;;5092436;28;20426;-74
2023/01/20 10:49:02;;;;;;;30.83;16.67;;;5.20;45.60;;;;;;5074004;28;20391;-76
2023/01/20 10:51:55;;;;;;;26.77;15.38;;;5.10;48.90;;;;;;5091737;28;20424;-75
2023/01/20 10:55:00;;;;;;;27.60;13.45;;;5.10;47.90;;;;;;5073948;28;20394;-75
2023/01/20 10:57:26;;;;;;;25.25;13.35;;;5.00;49.70;;;;;;5019203;28;20390;-77
2023/01/20 10:59:59;;;;;;;23.05;13.55;;;5.00;48.60;;;;;;5092368;28;20409;-75
2023/01/20 11:02:29;;;;;;;24.92;14.05;;;4.90;49.70;;;;;;5094059;28;20462;-75
2023/01/20 11:05:00;;;;;;;21.30;13.07;;;5.00;49.30;;;;;;5093744;28;20437;-76
2023/01/20 11:07:28;;;;;;;20.30;12.55;;;5.00;46.10;;;;;;5094021;28;20429;-75
2023/01/20 11:09:54;;;;;;;20.95;12.27;;;4.90;45.50;;;;;;5096410;28;20416;-74
2023/01/20 11:12:23;;;;;;;24.63;12.47;;;5.00;45.40;;;;;;5092988;28;20378;-75
2023/01/20 11:14:49;;;;;;;22.17;13.02;;;5.00;43.90;;;;;;5074874;28;20425;-75
2023/01/20 11:17:19;;;;;;;21.70;12.50;;;5.00;45.50;;;;;;5073351;28;20385;-75
2023/01/20 11:19:56;;;;;;;24.77;13.15;;;5.00;46.70;;;;;;5091224;28;20398;-74
2023/01/20 11:22:30;;;;;;;20.50;11.77;;;5.20;45.00;;;;;;5091247;28;20385;-74
2023/01/20 11:25:02;;;;;;;22.00;11.90;;;5.10;43.50;;;;;;5073960;28;20381;-75
2023/01/20 11:27:36;;;;;;;21.00;12.73;;;5.20;40.90;;;;;;5091395;28;20427;-74
2023/01/20 11:30:19;;;;;;;22.30;11.70;;;5.20;42.30;;;;;;5091454;28;20431;-74
2023/01/20 11:32:45;;;;;;;19.35;11.93;;;5.20;43.50;;;;;;5091273;28;20878;-75
2023/01/20 11:35:23;;;;;;;17.67;11.93;;;5.30;43.10;;;;;;5091451;28;20389;-76
2023/01/20 11:37:50;;;;;;;20.42;11.75;;;5.50;43.10;;;;;;5090733;28;20538;-75
2023/01/20 11:40:24;;;;;;;21.27;11.50;;;5.50;42.30;;;;;;5091122;28;20890;-74
2023/01/20 11:42:51;;;;;;;18.83;11.20;;;5.50;41.80;;;;;;5096643;28;20385;-75
2023/01/20 11:45:29;;;;;;;18.07;10.70;;;5.60;39.10;;;;;;5098414;28;20454;-77
2023/01/20 11:48:00;;;;;;;23.02;12.00;;;5.60;38.80;;;;;;5097082;28;20385;-76
2023/01/20 11:50:38;;;;;;;15.35;10.82;;;5.60;40.30;;;;;;5077236;28;20418;-75
2023/01/20 11:53:20;;;;;;;21.33;11.18;;;5.40;40.70;;;;;;5095208;28;20401;-75
2023/01/20 11:55:50;;;;;;;19.98;11.20;;;5.40;41.20;;;;;;5096091;28;20400;-75
2023/01/20 11:58:19;;;;;;;20.25;11.43;;;5.50;41.00;;;;;;5095206;28;20827;-76
2023/01/20 12:00:44;;;;;;;24.10;10.82;;;5.40;41.20;;;;;;5077078;28;20454;-75
2023/01/20 12:03:28;;;;;;;19.52;10.68;;;5.30;41.40;;;;;;5094883;28;20730;-75
2023/01/20 12:06:17;;;;;;;18.87;11.10;;;5.30;41.70;;;;;;5095295;28;20418;-76
2023/01/20 12:08:48;;;;;;;16.10;10.77;;;5.30;43.10;;;;;;5077128;28;20567;-75
2023/01/20 12:11:18;;;;;;;20.92;11.27;;;5.40;42.40;;;;;;5094937;28;20378;-73
2023/01/20 12:16:42;;;;;;;36.80;11.80;;;5.40;42.30;;;;;;5095232;28;20401;-75
2023/01/20 12:19:17;;;;;;;26.42;11.95;;;5.40;41.40;;;;;;5099342;28;20474;-75
2023/01/20 12:21:48;;;;;;;21.10;10.38;;;5.30;41.50;;;;;;5091071;28;20389;-78
2023/01/20 12:24:14;;;;;;;17.77;9.80;;;5.20;41.50;;;;;;5109281;28;20401;-74
2023/01/20 12:26:40;;;;;;;22.23;11.07;;;5.20;41.90;;;;;;5099767;28;20863;-74
2023/01/20 12:29:43;;;;;;;31.60;11.87;;;5.10;42.20;;;;;;5094324;28;20453;-75
2023/01/20 12:32:09;;;;;;;21.33;10.10;;;5.10;42.50;;;;;;5094371;28;20438;-75
2023/01/20 12:34:35;;;;;;;20.25;10.57;;;5.10;43.20;;;;;;5093799;28;20466;-74
2023/01/20 12:37:20;;;;;;;17.60;11.20;;;5.10;44.30;;;;;;5093951;28;20405;-76
2023/01/20 12:39:54;;;;;;;22.33;12.00;;;5.10;41.40;;;;;;5093813;28;20410;-74
2023/01/20 12:42:35;;;;;;;24.52;12.10;;;5.30;40.60;;;;;;5094007;28;20789;-76
2023/01/20 12:45:18;;;;;;;27.80;12.57;;;5.20;41.00;;;;;;5093950;28;20529;-74
2023/01/20 12:48:11;;;;;;;24.23;11.90;;;5.20;41.10;;;;;;5094060;28;20372;-75
2023/01/20 12:50:49;;;;;;;22.90;12.35;;;5.10;41.70;;;;;;5094802;28;20370;-75
2023/01/20 12:53:37;;;;;;;30.08;12.52;;;5.00;42.10;;;;;;5093502;28;20804;-75
2023/01/20 12:56:39;;;;;;;30.58;12.35;;;5.10;43.90;;;;;;5093516;28;20378;-75
2023/01/20 12:59:39;;;;;;;23.87;11.50;;;5.20;41.80;;;;;;5093923;28;20411;-75
2023/01/20 13:02:11;;;;;;;18.88;9.85;;;5.30;40.90;;;;;;5093372;28;20450;-75
2023/01/20 13:04:49;;;;;;;18.60;9.90;;;5.30;42.60;;;;;;5093076;28;20433;-75
2023/01/20 13:07:35;;;;;;;11.57;8.65;;;5.20;42.10;;;;;;5076882;28;20387;-76